createdAt,value
2022-11-29T00:02:56.819Z,100346.06
2022-11-29T00:06:58.485Z,100337.59
2022-11-29T00:11:07.848Z,100340.97
2022-11-29T00:15:09.351Z,100340.84
2022-11-29T00:19:12.652Z,100336.53
2022-11-29T00:23:14.243Z,100335.66
2022-11-29T00:27:15.874Z,100333.09
2022-11-29T00:31:30.356Z,100331.38
2022-11-29T00:35:32.111Z,100325.41
2022-11-29T00:39:33.692Z,100334.78
2022-11-29T00:43:35.512Z,100338.16
2022-11-29T00:47:37.121Z,100335.53
2022-11-29T00:51:38.725Z,100333.84
2022-11-29T00:55:40.357Z,100336.47
2022-11-29T00:59:41.932Z,100344.19
2022-11-29T01:03:43.711Z,100343.31
2022-11-29T01:07:45.380Z,100349.28
2022-11-29T01:11:49.376Z,100350.19
2022-11-29T01:15:56.672Z,100355.34
2022-11-29T01:19:58.566Z,100351.19
2022-11-29T01:24:01.430Z,100351.22
2022-11-29T01:28:02.975Z,100359.03
2022-11-29T01:32:04.700Z,100359.03
2022-11-29T01:36:07.404Z,100355.59
2022-11-29T01:40:09.200Z,100366.75
2022-11-29T01:44:13.726Z,100364.31
2022-11-29T01:48:15.732Z,100353.25
2022-11-29T01:52:24.019Z,100363.56
2022-11-29T01:56:26.115Z,100359.38
2022-11-29T02:00:27.675Z,100361.06
2022-11-29T02:04:32.725Z,100359.44
2022-11-29T02:08:39.144Z,100356.03
2022-11-29T02:12:43.503Z,100361.19
2022-11-29T02:17:01.314Z,100359.44
2022-11-29T02:21:33.960Z,100362.94
2022-11-29T02:25:47.578Z,100363.59
2022-11-29T02:30:08.632Z,100356.03
2022-11-29T02:34:25.985Z,100360.19
2022-11-29T02:38:59.509Z,100356.78
2022-11-29T02:43:39.838Z,100357.56
2022-11-29T02:47:55.639Z,100362.00
2022-11-29T02:52:32.398Z,100350.09
2022-11-29T02:56:58.207Z,100364.59
2022-11-29T03:01:18.342Z,100365.41
2022-11-29T03:05:24.525Z,100361.19
2022-11-29T03:09:37.960Z,100366.38
2022-11-29T03:14:09.375Z,100365.50
2022-11-29T03:18:34.767Z,100374.69
2022-11-29T03:22:55.023Z,100384.97
2022-11-29T03:27:03.562Z,100389.94
2022-11-29T03:31:23.635Z,100388.88
2022-11-29T03:35:47.967Z,100387.97
2022-11-29T03:39:59.328Z,100390.53
2022-11-29T03:44:12.999Z,100393.38
2022-11-29T03:48:19.139Z,100389.09
2022-11-29T03:52:33.847Z,100389.09
2022-11-29T03:56:39.640Z,100397.72
2022-11-29T04:00:49.940Z,100390.13
2022-11-29T04:05:19.698Z,100395.22
2022-11-29T04:09:42.484Z,100398.72
2022-11-29T04:14:05.608Z,100397.00
2022-11-29T04:18:32.051Z,100393.69
2022-11-29T04:22:52.681Z,100411.63
2022-11-29T04:27:23.398Z,100409.19
2022-11-29T04:31:37.167Z,100417.75
2022-11-29T04:36:12.689Z,100422.84
2022-11-29T04:40:41.604Z,100422.66
2022-11-29T04:44:49.123Z,100426.81
2022-11-29T04:49:28.343Z,100430.22
2022-11-29T04:53:54.570Z,100428.41
2022-11-29T04:58:06.858Z,100438.78
2022-11-29T05:02:29.370Z,100437.88
2022-11-29T05:06:48.205Z,100438.63
2022-11-29T05:11:08.325Z,100447.09
2022-11-29T05:15:37.892Z,100450.66
2022-11-29T05:20:04.784Z,100456.78
2022-11-29T05:24:30.984Z,100457.66
2022-11-29T05:28:54.710Z,100473.69
2022-11-29T05:33:28.977Z,100469.13
2022-11-29T05:37:45.525Z,100477.59
2022-11-29T05:41:46.985Z,100483.53
2022-11-29T05:46:08.174Z,100480.28
2022-11-29T05:50:17.755Z,100479.53
2022-11-29T05:54:40.727Z,100484.78
2022-11-29T05:58:55.884Z,100485.59
2022-11-29T06:03:23.713Z,100487.81
2022-11-29T06:07:44.616Z,100492.53
2022-11-29T06:11:52.071Z,100498.31
2022-11-29T06:16:34.902Z,100504.41
2022-11-29T06:20:52.716Z,100497.50
2022-11-29T06:25:06.962Z,100503.59
2022-11-29T06:29:25.237Z,100502.69
2022-11-29T06:33:35.305Z,100503.56
2022-11-29T06:37:44.222Z,100507.94
2022-11-29T06:41:47.046Z,100514.75
2022-11-29T06:45:57.322Z,100523.38
2022-11-29T06:50:22.117Z,100525.78
2022-11-29T06:54:45.357Z,100526.31
2022-11-29T06:59:01.537Z,100539.44
2022-11-29T07:03:23.101Z,100549.91
2022-11-29T07:07:24.988Z,100556.19
2022-11-29T07:11:27.068Z,100562.06
2022-11-29T07:15:28.931Z,100558.56
2022-11-29T07:19:36.578Z,100569.72
2022-11-29T07:23:59.738Z,100572.53
2022-11-29T07:28:33.354Z,100573.38
2022-11-29T07:33:00.308Z,100569.72
2022-11-29T07:37:49.846Z,100584.06
2022-11-29T07:41:58.531Z,100575.53
2022-11-29T07:46:00.427Z,100588.25
2022-11-29T07:50:02.106Z,100585.75
2022-11-29T07:54:03.782Z,100592.22
2022-11-29T07:58:05.312Z,100587.34
2022-11-29T08:02:11.607Z,100592.38
2022-11-29T08:06:13.312Z,100590.72
2022-11-29T08:10:16.507Z,100590.19
2022-11-29T08:14:18.013Z,100596.81
2022-11-29T08:18:19.613Z,100594.84
2022-11-29T08:22:21.154Z,100598.66
2022-11-29T08:26:25.542Z,100603.31
2022-11-29T08:30:31.361Z,100611.22
2022-11-29T08:34:33.004Z,100603.94
2022-11-29T08:38:34.702Z,100604.91
2022-11-29T08:42:36.289Z,100609.50
2022-11-29T08:46:56.205Z,100616.56
2022-11-29T08:50:58.212Z,100610.78
2022-11-29T08:55:03.121Z,100622.03
2022-11-29T08:59:05.931Z,100632.53
2022-11-29T09:03:26.863Z,100633.47
2022-11-29T09:07:28.599Z,100637.16
2022-11-29T09:11:32.519Z,100640.97
2022-11-29T09:15:34.347Z,100632.69
2022-11-29T09:19:35.917Z,100639.72
2022-11-29T09:23:37.589Z,100642.78
2022-11-29T09:27:39.135Z,100642.91
2022-11-29T09:31:41.368Z,100648.22
2022-11-29T09:35:43.020Z,100651.75
2022-11-29T09:39:44.636Z,100658.75
2022-11-29T09:44:02.299Z,100659.63
2022-11-29T09:48:30.988Z,100663.00
2022-11-29T09:52:36.545Z,100670.47
2022-11-29T09:56:44.953Z,100667.97
2022-11-29T10:00:50.591Z,100675.84
2022-11-29T10:05:10.065Z,100676.72
2022-11-29T10:09:20.415Z,100680.34
2022-11-29T10:13:29.675Z,100673.53
2022-11-29T10:17:38.447Z,100680.34
2022-11-29T10:21:43.239Z,100672.84
2022-11-29T10:25:50.510Z,100672.94
2022-11-29T10:29:53.100Z,100672.19
2022-11-29T10:33:58.021Z,100671.69
2022-11-29T10:42:44.955Z,100676.22
2022-11-29T10:46:46.864Z,100666.50
2022-11-29T10:50:50.545Z,100660.44
2022-11-29T10:54:56.828Z,100672.22
2022-11-29T10:59:05.038Z,100674.16
2022-11-29T11:03:16.506Z,100667.19
2022-11-29T11:07:28.966Z,100677.34
2022-11-29T11:11:32.490Z,100664.31
2022-11-29T11:15:34.053Z,100668.16
2022-11-29T11:19:35.767Z,100670.00
2022-11-29T11:23:52.081Z,100657.22
2022-11-29T11:27:54.511Z,100677.47
2022-11-29T11:31:57.975Z,100673.97
2022-11-29T11:36:05.436Z,100668.22
2022-11-29T11:40:29.653Z,100676.72
2022-11-29T11:44:51.242Z,100684.41
2022-11-29T11:48:54.017Z,100684.19
2022-11-29T11:52:58.799Z,100686.00
2022-11-29T11:57:00.428Z,100686.94
2022-11-29T12:01:08.073Z,100703.59
2022-11-29T12:05:19.178Z,100697.03
2022-11-29T12:09:32.764Z,100690.47
2022-11-29T12:13:39.814Z,100694.75
2022-11-29T12:17:56.078Z,100683.97
2022-11-29T12:22:02.860Z,100690.97
2022-11-29T12:26:19.261Z,100685.09
2022-11-29T12:30:33.752Z,100686.84
2022-11-29T12:34:53.676Z,100699.13
2022-11-29T12:39:08.641Z,100707.16
2022-11-29T12:43:28.715Z,100710.78
2022-11-29T12:47:51.910Z,100703.16
2022-11-29T12:52:10.736Z,100705.94
2022-11-29T12:56:36.751Z,100705.34
2022-11-29T13:01:15.552Z,100703.84
2022-11-29T13:05:23.146Z,100702.94
2022-11-29T13:10:03.202Z,100708.03
2022-11-29T13:14:41.510Z,100708.22
2022-11-29T13:18:48.670Z,100721.78
2022-11-29T13:23:02.982Z,100723.56
2022-11-29T13:27:06.113Z,100720.38
2022-11-29T13:31:12.544Z,100718.06
2022-11-29T13:35:20.250Z,100723.38
2022-11-29T13:39:46.311Z,100717.25
2022-11-29T13:43:59.810Z,100710.31
2022-11-29T13:48:24.967Z,100710.31
2022-11-29T13:52:42.439Z,100711.28
2022-11-29T13:56:46.410Z,100716.47
2022-11-29T14:00:50.787Z,100732.59
2022-11-29T14:04:52.637Z,100717.47
2022-11-29T14:13:21.475Z,100723.53
2022-11-29T14:17:42.976Z,100721.72
2022-11-29T14:22:02.982Z,100731.13
2022-11-29T14:26:04.547Z,100736.84
2022-11-29T14:30:40.593Z,100739.41
2022-11-29T14:34:46.762Z,100739.06
2022-11-29T14:38:58.639Z,100745.22
2022-11-29T14:43:02.141Z,100752.13
2022-11-29T14:47:35.407Z,100754.69
2022-11-29T15:26:37.070Z,100803.25
2022-11-29T15:37:30.897Z,100795.38
2022-11-29T15:41:35.611Z,100803.25
2022-11-29T15:51:37.599Z,100807.44
2022-11-29T15:55:39.345Z,100809.69
2022-11-29T15:59:48.891Z,100816.03
2022-11-29T16:03:53.258Z,100814.41
2022-11-29T16:08:00.362Z,100812.84
2022-11-29T16:13:01.190Z,100824.09
2022-11-29T16:17:03.902Z,100815.28
2022-11-29T16:27:01.484Z,100819.25
2022-11-29T16:32:02.114Z,100825.69
2022-11-29T16:36:06.162Z,100823.13
2022-11-29T16:47:04.716Z,100838.78
2022-11-29T16:51:16.131Z,100834.31
2022-11-29T16:56:07.838Z,100842.19
2022-11-29T17:01:00.849Z,100837.00
2022-11-29T17:05:02.517Z,100837.69
2022-11-29T17:09:04.574Z,100834.44
2022-11-29T17:13:10.403Z,100836.22
2022-11-29T17:23:10.236Z,100837.44
2022-11-29T17:27:11.760Z,100845.09
2022-11-29T17:31:15.780Z,100845.97
2022-11-29T17:35:17.461Z,100850.38
2022-11-29T17:39:20.029Z,100851.19
2022-11-29T17:43:21.611Z,100854.63
2022-11-29T17:47:23.139Z,100855.59
2022-11-29T17:55:46.749Z,100858.69
2022-11-29T17:59:48.442Z,100866.97
2022-11-29T18:03:58.254Z,100872.00
2022-11-29T18:07:59.855Z,100880.63
2022-11-29T18:12:02.396Z,100882.34
2022-11-29T18:16:10.060Z,100885.66
2022-11-29T18:20:13.942Z,100875.38
2022-11-29T18:24:15.576Z,100884.19
2022-11-29T18:28:17.220Z,100879.94
2022-11-29T18:32:18.769Z,100884.28
2022-11-29T18:36:31.928Z,100880.84
2022-11-29T18:40:33.634Z,100895.88
2022-11-29T18:44:35.261Z,100890.91
2022-11-29T18:48:37.593Z,100889.16
2022-11-29T18:52:40.788Z,100898.50
2022-11-29T18:56:43.643Z,100896.00
2022-11-29T19:00:45.319Z,100893.63
2022-11-29T19:04:48.696Z,100896.84
2022-11-29T19:08:51.654Z,100905.31
2022-11-29T19:12:53.362Z,100905.97
2022-11-29T19:16:55.040Z,100908.47
2022-11-29T19:21:16.206Z,100905.19
2022-11-29T19:25:17.789Z,100900.78
2022-11-29T19:29:20.300Z,100911.75
2022-11-29T19:33:21.905Z,100909.78
2022-11-29T19:37:23.523Z,100908.59
2022-11-29T19:41:26.540Z,100912.81
2022-11-29T19:45:28.201Z,100912.69
2022-11-29T19:49:29.811Z,100916.78
2022-11-29T19:53:32.278Z,100908.16
2022-11-29T19:57:33.845Z,100921.75
2022-11-29T20:01:43.660Z,100924.16
2022-11-29T20:05:54.384Z,100926.38
2022-11-29T20:09:55.906Z,100931.34
2022-11-29T20:13:59.815Z,100935.53
2022-11-29T20:18:02.232Z,100932.06
2022-11-29T20:22:03.841Z,100936.47
2022-11-29T20:26:10.060Z,100936.75
2022-11-29T20:30:12.269Z,100937.81
2022-11-29T20:34:14.844Z,100938.81
2022-11-29T20:38:55.708Z,100931.97
2022-11-29T20:43:06.632Z,100933.34
2022-11-29T20:47:19.245Z,100930.56
2022-11-29T20:51:30.449Z,100938.97
2022-11-29T20:55:32.543Z,100933.69
2022-11-29T20:59:34.108Z,100950.47
2022-11-29T21:03:36.264Z,100949.22
2022-11-29T21:07:37.864Z,100959.19
2022-11-29T21:11:39.856Z,100956.50
2022-11-29T21:15:42.339Z,100953.53
2022-11-29T21:19:44.211Z,100965.44
2022-11-29T21:24:17.962Z,100965.44
2022-11-29T21:28:20.275Z,100965.28
2022-11-29T21:32:24.415Z,100965.13
2022-11-29T21:36:26.027Z,100966.66
2022-11-29T21:40:28.117Z,100974.53
2022-11-29T21:44:29.712Z,100980.13
2022-11-29T21:48:37.955Z,100977.88
2022-11-29T21:52:39.967Z,100983.44
2022-11-29T21:56:41.579Z,100982.00
2022-11-29T22:00:43.526Z,100991.66
2022-11-29T22:04:45.716Z,100990.13
2022-11-29T22:08:48.795Z,100973.06
2022-11-29T22:12:52.533Z,100988.13
2022-11-29T22:16:59.125Z,100982.31
2022-11-29T22:21:06.378Z,100979.13
2022-11-29T22:25:08.349Z,100977.34
2022-11-29T22:29:11.647Z,100980.72
2022-11-29T22:33:13.652Z,100970.97
2022-11-29T22:37:15.274Z,100971.13
2022-11-29T22:41:17.725Z,100967.84
2022-11-29T22:45:19.222Z,100977.13
2022-11-29T22:49:20.799Z,100980.47
2022-11-29T22:53:22.347Z,100974.34
2022-11-29T22:57:23.903Z,100975.94
2022-11-29T23:01:28.108Z,100974.41
2022-11-29T23:05:32.507Z,100990.31
2022-11-29T23:09:34.232Z,100978.03
2022-11-29T23:13:37.665Z,100981.56
2022-11-29T23:17:39.162Z,100979.78
2022-11-29T23:21:40.993Z,100984.16
2022-11-29T23:25:49.548Z,100980.28
2022-11-29T23:29:51.121Z,100983.25
2022-11-29T23:33:52.829Z,100986.59
2022-11-29T23:37:54.445Z,100983.97
2022-11-29T23:41:55.937Z,100978.53
2022-11-29T23:45:57.944Z,100983.31
2022-11-29T23:49:59.463Z,100983.97
2022-11-29T23:54:01.104Z,100984.75
2022-11-29T23:58:02.687Z,100981.28
